Time;durP1;ratioP1;P1;durP2;ratioP2;P2;SDS_P1;SDS_P2;PMS_P1;PMS_P2;Temp;Humidity;BMP_temperature;BMP_pressure;BME280_temperature;BME280_humidity;BME280_pressure;Samples;Min_cycle;Max_cycle;Signal;HPM_P1;HPM_P2
2022/07/28 00:01:46;;;;;;;4.83;2.80;;;;;;;21.08;62.25;98089.78;4203931;28;20633;-81
2022/07/28 00:03:49;;;;;;;4.73;2.63;;;;;;;21.04;62.72;98093.81;4213526;28;20653;-81
2022/07/28 00:05:53;;;;;;;4.57;2.60;;;;;;;21.05;63.90;98092.78;4201703;28;20680;-81
2022/07/28 00:07:56;;;;;;;6.37;3.20;;;;;;;21.06;62.58;98089.16;4186462;28;20625;-81
2022/07/28 00:09:59;;;;;;;5.63;2.97;;;;;;;21.06;63.27;98089.97;4209250;28;20637;-81
2022/07/28 00:12:03;;;;;;;5.07;2.80;;;;;;;21.06;62.56;98083.84;4186872;28;20743;-81
2022/07/28 00:14:07;;;;;;;5.33;2.80;;;;;;;21.06;64.12;98086.50;4204381;28;20632;-81
2022/07/28 00:16:10;;;;;;;3.27;2.70;;;;;;;21.08;63.53;98088.00;4209781;28;20740;-81
2022/07/28 00:18:13;;;;;;;4.30;3.00;;;;;;;21.08;62.92;98087.13;4185998;28;20640;-80
2022/07/28 00:20:16;;;;;;;6.80;3.10;;;;;;;21.06;64.47;98086.50;4209731;28;21154;-81
2022/07/28 00:22:20;;;;;;;3.93;2.80;;;;;;;21.08;64.02;98073.88;4187102;28;20649;-81
2022/07/28 00:24:23;;;;;;;3.83;2.83;;;;;;;21.00;62.51;98072.09;4197375;28;20676;-81
2022/07/28 00:26:26;;;;;;;4.77;2.80;;;;;;;21.01;63.13;98078.22;4195509;28;20635;-82
2022/07/28 00:28:29;;;;;;;4.20;3.40;;;;;;;21.02;64.10;98075.41;4202856;28;21019;-81
2022/07/28 00:30:33;;;;;;;3.83;2.87;;;;;;;21.01;63.62;98072.91;4200561;28;21424;-81
2022/07/28 00:32:37;;;;;;;5.43;3.20;;;;;;;20.98;63.17;98073.25;4200662;28;20649;-80
2022/07/28 00:34:41;;;;;;;4.80;3.10;;;;;;;20.96;62.14;98060.16;4216136;27;20656;-81
2022/07/28 00:36:44;;;;;;;3.93;2.90;;;;;;;20.95;63.16;98065.63;4203961;28;20636;-81
2022/07/28 00:38:47;;;;;;;5.40;2.90;;;;;;;20.94;63.24;98066.63;4201968;28;20628;-81
2022/07/28 00:43:11;;;;;;;9.30;3.00;;;;;;;20.87;63.31;98065.66;4199817;28;20634;-81
2022/07/28 00:45:15;;;;;;;5.00;3.20;;;;;;;20.86;61.96;98056.03;4197995;28;20699;-81
2022/07/28 00:47:20;;;;;;;7.70;3.60;;;;;;;20.84;62.91;98066.81;4208884;28;20641;-80
2022/07/28 00:49:23;;;;;;;3.67;3.27;;;;;;;20.82;63.35;98062.66;4184583;28;20674;-80
2022/07/28 00:51:27;;;;;;;4.93;3.50;;;;;;;20.81;63.34;98064.50;4203319;28;21235;-80
2022/07/28 00:53:30;;;;;;;4.20;3.10;;;;;;;20.80;63.87;98067.31;4217976;27;20785;-80
2022/07/28 00:55:33;;;;;;;5.67;3.47;;;;;;;20.79;63.58;98076.25;4199798;28;21227;-81
2022/07/28 00:57:56;;;;;;;4.73;3.37;;;;;;;20.79;62.97;98068.31;4187348;28;20635;-80
2022/07/28 00:59:59;;;;;;;5.27;3.20;;;;;;;20.76;63.15;98066.00;4206038;28;20639;-80
2022/07/28 01:02:03;;;;;;;3.53;3.23;;;;;;;20.74;63.70;98062.69;4207034;28;20669;-80
2022/07/28 01:04:07;;;;;;;4.00;3.37;;;;;;;20.73;65.49;98060.19;4202554;28;20662;-80
2022/07/28 01:06:23;;;;;;;4.03;2.90;;;;;;;20.71;65.00;98062.22;4209620;28;20764;-80
2022/07/28 01:08:30;;;;;;;5.30;3.40;;;;;;;20.68;65.38;98058.06;4188493;28;20633;-80
2022/07/28 01:10:38;;;;;;;5.67;3.80;;;;;;;20.67;63.72;98050.25;4205758;28;20629;-80
2022/07/28 01:12:51;;;;;;;4.57;3.47;;;;;;;20.66;64.77;98052.06;4206992;28;20635;-81
2022/07/28 01:15:02;;;;;;;5.57;3.27;;;;;;;20.62;64.20;98045.44;4198545;28;20639;-80
2022/07/28 01:17:09;;;;;;;4.90;3.40;;;;;;;20.60;64.34;98050.09;4214672;28;20632;-80
2022/07/28 01:19:28;;;;;;;7.73;4.37;;;;;;;20.58;64.79;98043.28;4187472;28;20627;-80
2022/07/28 01:21:34;;;;;;;7.57;3.90;;;;;;;20.55;64.68;98046.28;4184662;28;20650;-80
2022/07/28 01:23:52;;;;;;;6.00;3.50;;;;;;;20.54;63.86;98049.94;4204426;28;20638;-80
2022/07/28 01:26:08;;;;;;;7.13;3.87;;;;;;;20.45;64.16;98049.09;4215668;28;20682;-80
2022/07/28 01:28:21;;;;;;;6.77;3.67;;;;;;;20.37;64.22;98053.56;4203160;28;20698;-80
2022/07/28 01:30:30;;;;;;;5.70;3.30;;;;;;;20.35;64.62;98053.72;4208467;28;20621;-80
2022/07/28 01:32:37;;;;;;;6.30;3.67;;;;;;;20.35;63.92;98059.03;4208000;28;20635;-80
2022/07/28 01:34:46;;;;;;;6.67;4.70;;;;;;;20.35;64.10;98048.44;4222878;28;20627;-80
2022/07/28 01:36:55;;;;;;;4.70;3.60;;;;;;;20.33;65.05;98045.13;4223577;28;23549;-80
2022/07/28 01:38:59;;;;;;;5.60;4.20;;;;;;;20.31;63.63;98048.09;4204331;28;20680;-79
2022/07/28 01:41:02;;;;;;;4.70;3.67;;;;;;;20.33;64.09;98046.97;4224362;28;20642;-80
2022/07/28 01:43:07;;;;;;;4.63;3.73;;;;;;;20.33;64.32;98044.31;4193424;28;21194;-80
2022/07/28 01:45:15;;;;;;;4.90;4.00;;;;;;;20.27;64.57;98041.50;4220838;28;20619;-80
2022/07/28 01:47:21;;;;;;;8.10;3.90;;;;;;;20.26;65.01;98039.84;4193888;28;20654;-80
2022/07/28 01:49:26;;;;;;;7.00;4.00;;;;;;;20.29;65.22;98039.50;4216976;28;20627;-80
2022/07/28 01:51:30;;;;;;;7.53;3.90;;;;;;;20.29;65.66;98034.22;4205187;28;20693;-80
2022/07/28 01:53:34;;;;;;;6.80;4.30;;;;;;;20.29;65.64;98039.50;4211216;28;20628;-80
2022/07/28 01:55:43;;;;;;;5.90;4.37;;;;;;;20.28;65.07;98037.84;4213078;28;20629;-80
2022/07/28 01:57:46;;;;;;;7.23;3.93;;;;;;;20.25;66.56;98028.41;4194058;28;20687;-80
2022/07/28 01:59:51;;;;;;;4.97;3.70;;;;;;;20.19;66.61;98026.44;4213369;28;20621;-80
2022/07/28 02:01:54;;;;;;;4.53;3.40;;;;;;;20.16;66.81;98018.81;4216391;27;20704;-80
2022/07/28 02:04:00;;;;;;;4.33;3.93;;;;;;;20.14;66.63;98025.25;4208135;28;20686;-80
2022/07/28 02:06:05;;;;;;;4.67;3.87;;;;;;;20.08;67.25;98023.28;4223417;28;20657;-80
2022/07/28 02:08:09;;;;;;;5.57;4.20;;;;;;;19.99;66.97;98026.91;4192592;28;21091;-80
2022/07/28 02:10:15;;;;;;;7.80;4.07;;;;;;;19.96;65.97;98021.94;4189897;28;20750;-80
2022/07/28 02:12:19;;;;;;;4.50;4.03;;;;;;;19.97;66.79;98020.94;4205507;28;20625;-80
2022/07/28 02:14:23;;;;;;;6.00;4.37;;;;;;;19.96;67.05;98021.94;4212473;28;20626;-80
2022/07/28 02:16:27;;;;;;;6.53;4.00;;;;;;;19.98;65.79;98017.28;4203727;28;20699;-80
2022/07/28 02:18:31;;;;;;;5.47;3.90;;;;;;;19.97;66.22;98018.31;4210285;28;20693;-80
2022/07/28 02:20:36;;;;;;;4.90;3.70;;;;;;;19.98;65.76;98019.94;4216034;28;20641;-82
2022/07/28 02:22:40;;;;;;;8.60;4.63;;;;;;;19.97;67.03;98018.31;4207426;28;20639;-82
2022/07/28 02:24:43;;;;;;;5.97;4.07;;;;;;;19.92;66.87;98018.78;4188852;28;20628;-80
2022/07/28 02:26:50;;;;;;;6.17;4.37;;;;;;;19.90;68.20;98014.66;4212035;28;20626;-80
2022/07/28 02:28:55;;;;;;;4.50;4.10;;;;;;;19.86;67.71;98011.50;4200501;28;20614;-82
2022/07/28 02:31:02;;;;;;;5.23;3.70;;;;;;;19.84;66.89;98017.91;4205715;28;20715;-82
2022/07/28 02:33:11;;;;;;;4.47;3.70;;;;;;;19.81;68.58;98014.78;4200567;28;20635;-82
2022/07/28 02:35:18;;;;;;;4.40;3.40;;;;;;;19.75;67.47;98016.25;4223267;27;20641;-82
2022/07/28 02:37:24;;;;;;;3.90;3.50;;;;;;;19.75;68.17;98018.06;4205256;28;20681;-82
2022/07/28 02:39:32;;;;;;;4.27;3.80;;;;;;;19.71;69.26;98012.28;4201287;28;20730;-82
2022/07/28 02:41:39;;;;;;;4.20;3.60;;;;;;;19.67;69.21;98010.94;4203470;28;21095;-81
2022/07/28 02:43:45;;;;;;;5.10;3.67;;;;;;;19.65;67.85;98007.63;4202003;28;20635;-80
2022/07/28 02:45:55;;;;;;;4.37;3.97;;;;;;;19.61;69.38;98011.59;4202531;28;20646;-80
2022/07/28 02:48:02;;;;;;;6.00;4.17;;;;;;;19.56;69.20;98005.97;4207476;28;20644;-80
2022/07/28 02:50:06;;;;;;;4.40;3.93;;;;;;;19.53;68.60;98011.56;4192940;28;20638;-80
2022/07/28 02:52:10;;;;;;;5.37;4.23;;;;;;;19.48;69.49;98011.25;4201348;28;20696;-80
2022/07/28 02:54:14;;;;;;;6.63;4.50;;;;;;;19.42;69.41;98005.75;4202018;28;20647;-80
2022/07/28 02:56:18;;;;;;;5.57;4.40;;;;;;;19.39;69.94;98006.91;4217900;28;20638;-80
2022/07/28 02:58:23;;;;;;;8.00;4.10;;;;;;;19.36;69.80;98000.28;4192598;28;20635;-80
2022/07/28 03:00:26;;;;;;;5.30;4.03;;;;;;;19.33;69.99;98011.19;4192591;28;24243;-80
2022/07/28 03:02:32;;;;;;;5.23;4.10;;;;;;;19.32;70.35;98001.56;4208412;28;20654;-80
2022/07/28 03:06:57;;;;;;;5.53;4.77;;;;;;;19.28;70.17;98013.50;4205068;28;20678;-80
2022/07/28 03:09:01;;;;;;;5.50;4.07;;;;;;;19.26;70.45;98012.78;4189315;28;20671;-80
2022/07/28 03:11:08;;;;;;;4.63;4.20;;;;;;;19.25;70.83;98016.44;4217617;28;20675;-80
2022/07/28 03:13:11;;;;;;;5.20;4.13;;;;;;;19.20;70.61;98014.28;4190522;28;20664;-80
2022/07/28 03:15:14;;;;;;;5.33;3.90;;;;;;;19.19;70.58;98009.16;4208060;28;20631;-80
2022/07/28 03:17:18;;;;;;;6.60;4.60;;;;;;;19.18;70.46;98016.25;4195390;28;21242;-80
2022/07/28 03:19:21;;;;;;;5.70;4.30;;;;;;;19.17;71.09;98016.41;4204181;28;20623;-80
2022/07/28 03:21:24;;;;;;;5.10;4.03;;;;;;;19.15;70.78;98013.09;4208871;28;20661;-80
2022/07/28 03:23:32;;;;;;;5.13;3.87;;;;;;;19.14;71.18;98019.34;4215760;28;20687;-80
2022/07/28 03:25:42;;;;;;;11.50;4.17;;;;;;;19.13;71.07;98015.91;4193747;28;21073;-80
2022/07/28 03:27:50;;;;;;;6.67;4.80;;;;;;;19.11;70.71;98009.09;4211944;28;21101;-80
2022/07/28 03:29:56;;;;;;;5.53;4.60;;;;;;;19.11;70.71;98004.66;4197499;28;21132;-80
2022/07/28 03:32:06;;;;;;;6.17;4.30;;;;;;;19.12;72.11;98010.75;4215464;28;21184;-80
2022/07/28 03:34:10;;;;;;;6.43;4.60;;;;;;;19.10;71.69;98010.94;4202873;28;20650;-80
2022/07/28 03:36:17;;;;;;;6.40;4.40;;;;;;;19.07;71.93;98000.66;4195769;28;20634;-80
2022/07/28 03:38:23;;;;;;;7.90;4.40;;;;;;;19.02;71.16;98002.97;4195132;28;20650;-80
2022/07/28 03:40:28;;;;;;;5.90;4.40;;;;;;;19.02;71.95;97999.50;4194418;28;20628;-80
2022/07/28 03:42:33;;;;;;;6.53;5.57;;;;;;;19.03;71.54;98009.06;4196712;28;20650;-80
2022/07/28 03:44:38;;;;;;;4.97;4.47;;;;;;;19.01;71.73;98005.72;4224869;27;20637;-80
2022/07/28 03:46:44;;;;;;;4.67;4.27;;;;;;;18.97;71.61;98012.31;4220508;28;21198;-80
2022/07/28 03:48:47;;;;;;;6.00;4.80;;;;;;;18.95;72.20;98004.53;4207682;28;20637;-80
2022/07/28 03:50:50;;;;;;;6.83;4.53;;;;;;;18.93;72.38;98003.88;4223873;27;20688;-80
2022/07/28 03:52:54;;;;;;;5.17;4.63;;;;;;;18.93;71.26;98005.72;4206107;28;20621;-80
2022/07/28 03:54:57;;;;;;;5.43;4.77;;;;;;;18.97;71.32;98009.66;4203852;28;20645;-80
2022/07/28 03:57:00;;;;;;;5.73;4.60;;;;;;;18.96;71.33;98014.13;4191322;28;20646;-80
2022/07/28 03:59:03;;;;;;;7.47;4.10;;;;;;;18.98;70.36;98009.50;4223586;28;20665;-80
2022/07/28 04:01:07;;;;;;;5.20;3.90;;;;;;;19.03;70.53;98015.22;4191656;28;20634;-80
2022/07/28 04:03:11;;;;;;;5.30;4.80;;;;;;;19.06;71.92;98014.03;4207627;28;20696;-80
2022/07/28 04:05:34;;;;;;;5.43;4.93;;;;;;;19.03;71.22;98017.00;4209195;28;20662;-80
2022/07/28 04:07:37;;;;;;;10.30;4.93;;;;;;;19.00;71.44;98014.63;4194236;28;20658;-80
2022/07/28 04:09:40;;;;;;;5.60;4.23;;;;;;;19.02;70.97;98020.66;4225109;27;20632;-80
2022/07/28 04:11:43;;;;;;;5.00;4.50;;;;;;;19.06;70.62;98014.91;4219671;27;21218;-80
2022/07/28 04:13:46;;;;;;;6.20;4.60;;;;;;;19.07;70.58;98016.53;4210199;28;20669;-80
2022/07/28 04:15:49;;;;;;;8.50;4.70;;;;;;;19.11;70.91;98019.66;4224525;27;21203;-80
2022/07/28 04:17:55;;;;;;;6.10;4.57;;;;;;;19.15;70.81;98023.66;4208966;28;20632;-80
2022/07/28 04:19:58;;;;;;;5.90;4.40;;;;;;;19.12;70.02;98024.00;4206572;28;20757;-79
2022/07/28 04:22:01;;;;;;;6.07;4.10;;;;;;;19.17;70.38;98026.97;4193079;28;20620;-80
2022/07/28 04:24:05;;;;;;;5.60;4.30;;;;;;;19.18;70.15;98023.34;4208637;28;20703;-80
2022/07/28 04:26:09;;;;;;;6.97;4.07;;;;;;;19.21;70.20;98023.03;4219555;27;20640;-80
2022/07/28 04:28:12;;;;;;;8.27;4.87;;;;;;;19.29;70.29;98025.69;4196056;28;20662;-80
2022/07/28 04:30:16;;;;;;;5.53;4.30;;;;;;;19.32;70.02;98031.53;4191616;28;20688;-80
2022/07/28 04:32:19;;;;;;;5.40;4.07;;;;;;;19.32;70.07;98025.38;4217733;27;20776;-80
2022/07/28 04:34:24;;;;;;;5.43;4.20;;;;;;;19.36;71.21;98029.38;4226666;28;20807;-80
2022/07/28 04:36:27;;;;;;;6.00;4.20;;;;;;;19.32;69.49;98028.88;4189384;28;20632;-80
2022/07/28 04:38:30;;;;;;;6.20;4.57;;;;;;;19.31;70.33;98024.56;4201438;28;21221;-80
2022/07/28 04:40:33;;;;;;;5.77;4.40;;;;;;;19.37;70.60;98028.41;4203783;28;20669;-80
2022/07/28 04:42:38;;;;;;;5.30;4.80;;;;;;;19.40;70.52;98029.72;4202869;28;20636;-79
2022/07/28 04:44:42;;;;;;;5.70;4.70;;;;;;;19.42;69.32;98018.97;4203165;28;20643;-80
2022/07/28 04:46:45;;;;;;;6.93;5.23;;;;;;;19.45;69.72;98027.44;4217641;27;20648;-80
2022/07/28 04:48:48;;;;;;;5.20;4.53;;;;;;;19.52;70.20;98033.72;4206956;28;20658;-81
2022/07/28 04:50:52;;;;;;;7.07;5.00;;;;;;;19.60;70.40;98022.34;4203140;28;21028;-81
2022/07/28 04:52:55;;;;;;;5.47;4.30;;;;;;;19.72;70.40;98035.09;4208614;28;20750;-81
2022/07/28 04:54:58;;;;;;;6.20;4.60;;;;;;;19.77;70.34;98032.81;4221120;28;21176;-81
2022/07/28 04:57:02;;;;;;;5.10;4.60;;;;;;;19.85;70.07;98030.16;4208972;28;21247;-81
2022/07/28 04:59:12;;;;;;;5.67;5.07;;;;;;;19.87;68.51;98028.22;4224678;27;20677;-81
2022/07/28 05:01:20;;;;;;;5.30;4.40;;;;;;;19.88;68.59;98029.88;4211085;28;20628;-81
2022/07/28 05:03:23;;;;;;;8.93;5.17;;;;;;;19.94;68.81;98031.88;4210506;28;20658;-81
2022/07/28 05:05:26;;;;;;;7.97;4.90;;;;;;;20.04;70.03;98038.66;4213361;28;20666;-81
2022/07/28 05:07:31;;;;;;;6.03;5.10;;;;;;;20.16;68.73;98028.56;4207036;28;21266;-80
2022/07/28 05:09:34;;;;;;;5.60;4.60;;;;;;;20.24;69.52;98039.19;4217400;27;21177;-81
2022/07/28 05:11:37;;;;;;;4.70;4.30;;;;;;;20.26;69.70;98037.19;4217920;28;20635;-80
2022/07/28 05:13:40;;;;;;;5.97;4.80;;;;;;;20.33;69.60;98039.00;4223610;28;20622;-80
2022/07/28 05:15:43;;;;;;;5.00;4.60;;;;;;;20.33;68.65;98036.34;4217686;28;20701;-80
2022/07/28 05:17:46;;;;;;;6.40;5.00;;;;;;;20.27;69.52;98037.03;4218675;27;20921;-80
2022/07/28 05:19:50;;;;;;;5.13;4.63;;;;;;;20.29;68.76;98045.63;4217355;28;20703;-80
2022/07/28 05:21:53;;;;;;;6.07;4.83;;;;;;;20.33;69.67;98052.25;4213749;28;20630;-80
2022/07/28 05:23:57;;;;;;;5.10;4.33;;;;;;;20.36;68.96;98049.28;4207162;28;20666;-80
2022/07/28 05:26:00;;;;;;;6.27;4.40;;;;;;;20.41;69.28;98044.28;4213789;28;20622;-80
2022/07/28 05:28:04;;;;;;;5.67;4.80;;;;;;;20.46;68.62;98042.81;4190550;28;20683;-80
2022/07/28 05:30:09;;;;;;;5.03;4.53;;;;;;;20.50;67.78;98033.53;4203876;28;21544;-80
2022/07/28 05:32:12;;;;;;;7.67;4.47;;;;;;;20.52;69.02;98050.09;4183358;28;20637;-80
2022/07/28 05:34:19;;;;;;;5.90;4.57;;;;;;;20.54;69.36;98042.81;4208094;28;20729;-81
2022/07/28 05:36:23;;;;;;;5.73;4.67;;;;;;;20.60;68.87;98036.00;4210177;28;20676;-80
2022/07/28 05:38:26;;;;;;;5.97;4.57;;;;;;;20.68;68.86;98041.34;4192199;28;21065;-80
2022/07/28 05:40:30;;;;;;;5.30;4.80;;;;;;;20.80;68.63;98037.34;4205141;28;20650;-80
2022/07/28 05:42:35;;;;;;;7.07;5.17;;;;;;;20.92;67.67;98050.06;4216778;28;20642;-79
2022/07/28 05:44:38;;;;;;;6.70;5.10;;;;;;;21.07;68.62;98051.84;4200299;28;20734;-80
2022/07/28 05:46:42;;;;;;;5.40;4.90;;;;;;;21.32;67.14;98048.94;4209223;28;20665;-80
2022/07/28 05:48:45;;;;;;;5.93;4.50;;;;;;;21.54;66.38;98052.69;4220794;28;20637;-80
2022/07/28 05:50:50;;;;;;;6.07;4.50;;;;;;;21.48;65.69;98046.22;4224964;28;20705;-80
2022/07/28 05:52:53;;;;;;;6.60;4.87;;;;;;;21.39;66.85;98047.25;4225971;27;21057;-80
2022/07/28 05:54:56;;;;;;;7.40;4.70;;;;;;;21.38;67.30;98042.13;4205264;28;20612;-80
2022/07/28 05:57:01;;;;;;;6.50;5.00;;;;;;;21.69;65.99;98058.91;4205945;28;20647;-81
2022/07/28 05:59:08;;;;;;;5.83;5.10;;;;;;;21.88;66.10;98046.03;4219152;28;20614;-81
2022/07/28 06:01:11;;;;;;;7.03;4.37;;;;;;;22.07;65.53;98057.03;4206032;28;20616;-81
2022/07/28 06:03:14;;;;;;;6.00;4.73;;;;;;;22.38;65.41;98050.66;4212984;28;20629;-81
2022/07/28 06:05:19;;;;;;;5.10;4.63;;;;;;;22.71;64.91;98058.16;4199294;28;20641;-81
2022/07/28 06:07:22;;;;;;;5.67;4.90;;;;;;;23.00;64.60;98055.59;4215636;28;21181;-80
2022/07/28 06:09:45;;;;;;;6.17;4.77;;;;;;;22.98;63.33;98057.59;4211909;28;20633;-81
2022/07/28 06:11:49;;;;;;;6.20;4.83;;;;;;;22.85;63.08;98045.91;4226280;28;20660;-81
2022/07/28 06:13:56;;;;;;;7.07;4.80;;;;;;;22.51;63.94;98050.06;4195844;28;21070;-81
2022/07/28 06:15:59;;;;;;;5.00;4.60;;;;;;;22.59;64.54;98052.66;4200956;28;20623;-81
2022/07/28 06:18:02;;;;;;;7.37;5.60;;;;;;;23.01;63.75;98051.09;4212851;28;21084;-81
2022/07/28 06:20:06;;;;;;;8.70;5.30;;;;;;;23.31;62.75;98054.41;4191687;28;20638;-81
2022/07/28 06:22:10;;;;;;;5.87;5.20;;;;;;;23.48;62.76;98052.38;4210296;28;20664;-81
2022/07/28 06:24:13;;;;;;;6.07;4.70;;;;;;;23.68;61.98;98060.47;4192612;28;21001;-81
2022/07/28 06:26:17;;;;;;;7.03;4.80;;;;;;;23.92;62.26;98067.28;4226468;28;20629;-81
2022/07/28 06:28:20;;;;;;;8.33;5.77;;;;;;;24.23;61.83;98071.34;4216054;28;20640;-81
2022/07/28 06:30:25;;;;;;;7.47;5.47;;;;;;;24.47;61.99;98073.66;4222228;28;20628;-81
2022/07/28 06:32:28;;;;;;;5.77;4.90;;;;;;;24.70;61.46;98067.94;4207716;28;20671;-81
2022/07/28 06:34:31;;;;;;;6.20;5.30;;;;;;;24.95;61.75;98066.47;4203187;28;20655;-81
2022/07/28 06:36:34;;;;;;;6.43;5.13;;;;;;;25.19;60.93;98069.53;4214290;28;20629;-81
2022/07/28 06:38:37;;;;;;;6.00;5.30;;;;;;;25.33;60.29;98052.59;4190154;28;20637;-81
2022/07/28 06:40:42;;;;;;;6.10;5.50;;;;;;;25.58;59.54;98064.44;4210552;28;20633;-81
2022/07/28 06:42:46;;;;;;;9.20;6.27;;;;;;;25.76;59.51;98062.88;4224381;27;21085;-81
2022/07/28 06:44:50;;;;;;;8.40;5.87;;;;;;;25.97;59.00;98065.44;4216916;28;20660;-81
2022/07/28 06:47:03;;;;;;;7.27;6.07;;;;;;;26.25;58.59;98071.47;4207849;28;20673;-81
2022/07/28 06:49:06;;;;;;;7.33;5.73;;;;;;;26.29;57.83;98062.06;4189412;28;20639;-81
2022/07/28 06:51:09;;;;;;;5.83;5.33;;;;;;;26.36;57.50;98069.06;4225951;28;20654;-81
2022/07/28 06:53:12;;;;;;;6.70;6.10;;;;;;;26.37;58.24;98059.19;4204657;28;20638;-81
2022/07/28 06:55:15;;;;;;;6.47;5.83;;;;;;;26.48;57.70;98058.59;4206107;28;20639;-84
2022/07/28 06:57:19;;;;;;;7.23;6.53;;;;;;;26.70;57.58;98064.38;4195552;28;20645;-82
2022/07/28 06:59:22;;;;;;;6.10;5.50;;;;;;;26.89;57.48;98071.59;4197375;28;21064;-81
2022/07/28 07:01:25;;;;;;;8.00;5.77;;;;;;;27.07;58.33;98063.75;4192647;28;21199;-81
2022/07/28 07:03:29;;;;;;;6.50;5.90;;;;;;;27.20;56.50;98066.44;4214963;28;21221;-81
2022/07/28 07:05:33;;;;;;;7.10;6.30;;;;;;;27.19;56.68;98060.22;4213523;28;20748;-82
2022/07/28 07:07:36;;;;;;;7.80;6.40;;;;;;;27.28;57.48;98060.84;4215186;28;20762;-82
2022/07/28 07:09:45;;;;;;;6.53;5.87;;;;;;;27.33;57.94;98059.16;4232451;28;20627;-82
2022/07/28 07:11:48;;;;;;;7.40;6.00;;;;;;;27.41;57.45;98060.81;4228068;28;20623;-82
2022/07/28 07:13:51;;;;;;;6.80;6.20;;;;;;;27.55;56.19;98056.06;4202543;28;21205;-82
2022/07/28 07:15:54;;;;;;;7.10;6.00;;;;;;;27.68;56.03;98058.69;4227876;28;20622;-82
2022/07/28 07:17:57;;;;;;;7.20;6.43;;;;;;;27.84;55.78;98052.03;4220526;28;20713;-82
2022/07/28 07:20:02;;;;;;;7.80;6.10;;;;;;;27.87;55.97;98056.97;4215769;28;21215;-82
2022/07/28 07:22:05;;;;;;;6.70;6.00;;;;;;;27.64;56.21;98054.78;4214473;28;20623;-81
2022/07/28 07:24:10;;;;;;;8.97;6.20;;;;;;;27.65;56.40;98050.28;4226954;28;20630;-83
2022/07/28 07:26:13;;;;;;;6.50;5.87;;;;;;;27.65;57.48;98053.75;4214570;28;20630;-82
2022/07/28 07:28:16;;;;;;;6.53;5.93;;;;;;;27.83;56.01;98047.69;4225102;28;20622;-83
2022/07/28 07:30:20;;;;;;;7.23;5.70;;;;;;;27.92;56.74;98044.56;4225233;28;20636;-83
2022/07/28 07:32:23;;;;;;;10.80;6.90;;;;;;;28.05;55.48;98048.03;4215758;28;20623;-83
2022/07/28 07:34:26;;;;;;;7.83;6.13;;;;;;;28.17;56.30;98040.13;4205356;28;20639;-83
2022/07/28 07:36:31;;;;;;;12.30;6.37;;;;;;;28.32;55.91;98029.91;4217310;28;21210;-83
2022/07/28 07:38:34;;;;;;;6.63;6.00;;;;;;;28.39;56.45;98047.63;4215849;28;20646;-83
2022/07/28 07:40:38;;;;;;;7.07;6.30;;;;;;;28.60;55.61;98025.78;4196489;28;20636;-83
2022/07/28 07:42:41;;;;;;;7.67;6.40;;;;;;;28.63;54.11;98033.41;4196543;28;20717;-83
2022/07/28 07:44:44;;;;;;;7.30;6.60;;;;;;;28.73;55.39;98028.38;4206139;28;20664;-83
2022/07/28 07:46:52;;;;;;;8.20;7.17;;;;;;;28.57;55.22;98028.91;4211638;28;20630;-83
2022/07/28 07:48:56;;;;;;;8.70;6.10;;;;;;;28.44;56.29;98036.22;4215298;28;20627;-83
2022/07/28 07:50:59;;;;;;;7.03;6.40;;;;;;;28.45;56.28;98038.69;4207126;28;21109;-83
2022/07/28 07:53:04;;;;;;;8.73;6.90;;;;;;;28.74;56.73;98032.72;4214281;28;20638;-83
2022/07/28 07:55:08;;;;;;;7.83;7.03;;;;;;;28.90;55.51;98041.06;4213017;28;20623;-82
2022/07/28 07:57:11;;;;;;;10.30;7.27;;;;;;;29.11;56.05;98035.28;4206269;28;20650;-82
2022/07/28 07:59:14;;;;;;;7.40;6.80;;;;;;;29.31;55.17;98038.63;4206775;28;21260;-82
2022/07/28 08:01:17;;;;;;;7.77;7.07;;;;;;;29.23;54.97;98039.72;4216061;28;21162;-83
2022/07/28 08:03:24;;;;;;;6.77;6.17;;;;;;;28.99;55.83;98032.47;4207952;28;20635;-82
2022/07/28 08:05:29;;;;;;;8.57;6.93;;;;;;;29.23;55.15;98036.19;4209641;28;20646;-81
2022/07/28 08:07:38;;;;;;;7.90;6.90;;;;;;;29.41;54.32;98031.69;4199443;28;20807;-82
2022/07/28 08:09:43;;;;;;;7.60;6.93;;;;;;;29.52;54.65;98033.63;4225423;28;20949;-81
2022/07/28 08:11:46;;;;;;;9.30;6.40;;;;;;;29.52;54.07;98037.13;4194319;28;20656;-83
2022/07/28 08:13:50;;;;;;;8.03;6.90;;;;;;;29.37;54.75;98035.03;4210098;28;20630;-83
2022/07/28 08:15:54;;;;;;;8.87;6.77;;;;;;;29.58;54.57;98030.03;4208771;28;20690;-80
2022/07/28 08:17:58;;;;;;;7.47;6.87;;;;;;;29.75;55.51;98031.06;4211600;28;20735;-82
2022/07/28 08:20:03;;;;;;;7.70;6.77;;;;;;;29.92;55.77;98034.81;4207719;28;20625;-83
2022/07/28 08:22:06;;;;;;;7.90;7.10;;;;;;;30.08;53.69;98038.50;4199789;28;20624;-82
2022/07/28 08:24:09;;;;;;;8.20;7.40;;;;;;;30.18;54.04;98038.78;4222083;28;20637;-82
2022/07/28 08:26:21;;;;;;;7.67;7.07;;;;;;;30.26;54.05;98032.25;4220120;27;21253;-82
2022/07/28 08:28:24;;;;;;;8.73;7.00;;;;;;;30.20;53.21;98033.97;4221357;27;20896;-82
2022/07/28 08:30:27;;;;;;;8.50;7.50;;;;;;;30.06;53.61;98018.25;4205742;28;20639;-82
2022/07/28 08:32:35;;;;;;;7.73;7.03;;;;;;;30.06;54.71;98027.16;4211454;28;20738;-82
2022/07/28 08:34:38;;;;;;;8.00;7.30;;;;;;;30.21;54.23;98022.19;4194286;28;21013;-82
2022/07/28 08:36:41;;;;;;;8.23;7.53;;;;;;;30.32;53.16;98024.06;4224159;28;20626;-82
2022/07/28 08:38:44;;;;;;;7.80;7.10;;;;;;;30.35;53.43;98018.25;4209994;28;20635;-82
2022/07/28 08:40:50;;;;;;;8.87;7.13;;;;;;;30.27;53.23;98021.25;4191860;28;20635;-82
2022/07/28 08:42:58;;;;;;;7.83;7.03;;;;;;;30.36;53.55;98022.59;4207435;28;20726;-82
2022/07/28 08:45:04;;;;;;;8.57;7.77;;;;;;;30.37;52.97;98026.97;4213009;28;20629;-83
2022/07/28 08:47:10;;;;;;;7.87;7.17;;;;;;;30.24;52.87;98015.53;4236233;27;21048;-82
2022/07/28 08:49:13;;;;;;;7.20;6.60;;;;;;;30.30;53.32;98023.50;4216555;28;21506;-83
2022/07/28 08:51:17;;;;;;;7.57;6.87;;;;;;;30.44;52.58;98027.66;4211988;28;21417;-82
2022/07/28 08:53:20;;;;;;;7.60;7.00;;;;;;;30.47;52.56;98019.13;4208954;28;20982;-83
2022/07/28 08:55:24;;;;;;;7.70;7.00;;;;;;;30.56;53.23;98021.25;4205291;28;21026;-82
2022/07/28 08:57:35;;;;;;;7.83;7.03;;;;;;;30.45;52.28;98008.56;4217073;28;20703;-83
2022/07/28 08:59:40;;;;;;;6.90;6.30;;;;;;;30.32;53.02;98023.25;4212480;28;20629;-82
2022/07/28 09:01:43;;;;;;;7.10;6.40;;;;;;;30.42;52.58;98016.31;4211157;28;21212;-82
2022/07/28 09:03:46;;;;;;;7.47;6.87;;;;;;;30.60;52.94;98010.84;4213420;28;20649;-82
2022/07/28 09:05:49;;;;;;;7.60;6.90;;;;;;;30.69;53.19;98020.22;4193493;28;21483;-82
2022/07/28 09:07:54;;;;;;;7.10;6.40;;;;;;;30.76;52.31;98002.06;4216294;28;21212;-82
2022/07/28 09:09:57;;;;;;;7.40;6.50;;;;;;;30.77;51.70;98003.72;4226987;28;20649;-82
2022/07/28 09:12:05;;;;;;;7.97;6.80;;;;;;;30.62;51.78;98003.34;4198903;28;20701;-82
2022/07/28 09:14:09;;;;;;;7.90;6.47;;;;;;;30.58;53.39;98000.28;4205656;28;20730;-82
2022/07/28 09:16:14;;;;;;;7.67;6.87;;;;;;;30.54;52.98;98011.75;4185836;28;20637;-82
2022/07/28 09:18:19;;;;;;;9.50;6.50;;;;;;;30.32;52.89;97999.84;4205901;28;20629;-82
2022/07/28 09:20:23;;;;;;;8.70;6.50;;;;;;;30.35;53.17;97994.03;4222277;28;20632;-82
2022/07/28 09:22:27;;;;;;;7.60;6.90;;;;;;;30.33;52.43;97985.34;4190662;28;20670;-81
2022/07/28 09:24:34;;;;;;;7.00;6.40;;;;;;;30.27;53.22;97990.81;4204212;28;21098;-82
2022/07/28 09:26:37;;;;;;;10.13;6.80;;;;;;;30.12;52.68;97982.34;4222062;27;20660;-82
2022/07/28 09:28:48;;;;;;;7.00;6.30;;;;;;;29.93;53.42;97986.13;4205310;28;20637;-81
2022/07/28 09:30:52;;;;;;;6.97;6.30;;;;;;;29.90;53.20;97993.84;4207833;28;21261;-81
2022/07/28 09:33:18;;;;;;;6.60;6.00;;;;;;;29.90;53.20;97991.16;4216940;28;20625;-81
2022/07/28 09:35:46;;;;;;;7.30;6.70;;;;;;;29.96;52.95;97985.69;4204951;28;21271;-82
2022/07/28 09:37:59;;;;;;;7.83;7.13;;;;;;;30.17;53.12;97982.47;4205848;28;20634;-82
2022/07/28 09:40:10;;;;;;;7.03;6.43;;;;;;;30.32;53.20;97988.25;4208534;28;20649;-81
2022/07/28 09:42:14;;;;;;;6.63;6.03;;;;;;;30.42;53.27;97991.22;4206307;28;20625;-81
2022/07/28 09:44:20;;;;;;;6.73;6.03;;;;;;;30.51;52.90;97980.72;4206531;28;20658;-82
2022/07/28 09:46:25;;;;;;;7.90;7.03;;;;;;;30.46;52.06;97987.84;4194426;28;20807;-82
2022/07/28 09:48:33;;;;;;;7.93;6.70;;;;;;;30.27;52.20;97978.19;4205132;28;20625;-82
2022/07/28 09:50:37;;;;;;;9.27;7.30;;;;;;;30.11;52.48;97981.50;4204174;28;20776;-82
2022/07/28 09:52:40;;;;;;;7.40;6.70;;;;;;;29.91;53.40;97976.66;4203148;28;20670;-82
2022/07/28 09:54:59;;;;;;;7.50;6.80;;;;;;;29.71;52.93;97968.81;4209907;28;21549;-81